Time;durP1;ratioP1;P1;durP2;ratioP2;P2;SDS_P1;SDS_P2;PMS_P1;PMS_P2;Temp;Humidity;BMP_temperature;BMP_pressure;BME280_temperature;BME280_humidity;BME280_pressure;Samples;Min_cycle;Max_cycle;Signal;HPM_P1;HPM_P2
2021/03/04 00:01:21;;;;;;;21.80;10.20;;;;;;;;;;5045244;28;20222;-81
2021/03/04 00:03:50;;;;;;;21.17;10.83;;;;;;;;;;5043695;28;20225;-80
2021/03/04 00:06:18;;;;;;;20.20;11.50;;;;;;;;;;5042921;28;20713;-81
2021/03/04 00:08:46;;;;;;;20.07;10.93;;;;;;;;;;5044520;28;20207;-83
2021/03/04 00:11:14;;;;;;;19.87;10.60;;;;;;;;;;5045196;28;20209;-81
2021/03/04 00:13:42;;;;;;;18.67;10.97;;;;;;;;;;5045712;28;20199;-82
2021/03/04 00:16:11;;;;;;;19.23;10.80;;;;;;;;;;5023893;28;20225;-80
2021/03/04 00:18:39;;;;;;;16.23;9.60;;;;;;;;;;5043524;28;20205;-83
2021/03/04 00:21:07;;;;;;;19.20;10.60;;;;;;;;;;5040311;28;20204;-84
2021/03/04 00:23:35;;;;;;;21.03;11.13;;;;;;;;;;5041369;28;20602;-88
2021/03/04 00:26:03;;;;;;;20.87;10.80;;;;;;;;;;5057922;28;20225;-79
2021/03/04 00:28:31;;;;;;;17.10;10.20;;;;;;;;;;5061748;28;20199;-80
2021/03/04 00:30:59;;;;;;;17.20;9.87;;;;;;;;;;5046811;28;20199;-80
2021/03/04 00:33:29;;;;;;;17.80;10.00;;;;;;;;;;5045660;28;20199;-80
2021/03/04 00:35:57;;;;;;;20.20;9.57;;;;;;;;;;5043345;28;20221;-81
2021/03/04 00:38:26;;;;;;;17.80;10.23;;;;;;;;;;5044622;28;20211;-80
2021/03/04 00:40:54;;;;;;;16.80;10.00;;;;;;;;;;5065394;28;20199;-84
2021/03/04 00:43:22;;;;;;;19.13;10.10;;;;;;;;;;5050875;28;20219;-83
2021/03/04 00:45:50;;;;;;;19.70;10.67;;;;;;;;;;5051323;28;20219;-83
2021/03/04 00:48:18;;;;;;;18.37;10.37;;;;;;;;;;5066218;28;20195;-82
2021/03/04 00:50:47;;;;;;;21.60;10.53;;;;;;;;;;5060198;28;20283;-81
2021/03/04 00:53:15;;;;;;;18.80;10.57;;;;;;;;;;5060483;28;20196;-82
2021/03/04 00:55:43;;;;;;;19.20;11.07;;;;;;;;;;5060865;28;20219;-80
2021/03/04 00:58:12;;;;;;;19.40;10.73;;;;;;;;;;5058111;28;20211;-85
2021/03/04 01:00:40;;;;;;;16.30;9.80;;;;;;;;;;5043965;28;20201;-87
2021/03/04 01:03:08;;;;;;;16.53;10.00;;;;;;;;;;5045158;28;20234;-80
2021/03/04 01:05:37;;;;;;;19.63;10.00;;;;;;;;;;5046358;28;20243;-83
2021/03/04 01:08:06;;;;;;;19.17;10.33;;;;;;;;;;5022847;28;20618;-85
2021/03/04 01:10:36;;;;;;;17.67;9.80;;;;;;;;;;5022822;28;20204;-85
2021/03/04 01:13:05;;;;;;;20.73;10.67;;;;;;;;;;5040305;28;20206;-89
2021/03/04 01:15:33;;;;;;;18.97;10.70;;;;;;;;;;5043458;28;20218;-86
2021/03/04 01:18:02;;;;;;;17.37;9.90;;;;;;;;;;5052374;28;20228;-80
2021/03/04 01:20:31;;;;;;;19.43;10.17;;;;;;;;;;5047431;28;20223;-86
2021/03/04 01:23:00;;;;;;;19.10;10.23;;;;;;;;;;5047222;28;20200;-83
2021/03/04 01:25:29;;;;;;;22.87;10.70;;;;;;;;;;5054997;28;20226;-90
2021/03/04 01:27:57;;;;;;;15.27;9.47;;;;;;;;;;5059628;28;20193;-87
2021/03/04 01:30:28;;;;;;;17.90;10.10;;;;;;;;;;5045846;28;20215;-90
2021/03/04 01:32:56;;;;;;;19.13;10.27;;;;;;;;;;5038803;28;20216;-91
2021/03/04 01:35:25;;;;;;;14.67;9.77;;;;;;;;;;5039228;28;20203;-90
2021/03/04 01:37:54;;;;;;;15.97;9.80;;;;;;;;;;5045197;28;20218;-91
2021/03/04 01:40:22;;;;;;;16.10;9.67;;;;;;;;;;5041590;28;20706;-83
2021/03/04 01:42:51;;;;;;;17.30;10.80;;;;;;;;;;5039024;28;20204;-80
2021/03/04 01:45:20;;;;;;;17.40;10.00;;;;;;;;;;5041934;28;20242;-80
2021/03/04 01:47:49;;;;;;;15.80;9.97;;;;;;;;;;5038161;28;20201;-81
2021/03/04 01:50:19;;;;;;;16.43;9.43;;;;;;;;;;5039381;28;20204;-82
2021/03/04 01:52:47;;;;;;;18.60;9.67;;;;;;;;;;5045612;28;20579;-80
2021/03/04 01:55:17;;;;;;;20.83;9.93;;;;;;;;;;5045850;28;20600;-80
2021/03/04 01:57:45;;;;;;;14.73;10.53;;;;;;;;;;5047434;28;20211;-82
2021/03/04 02:00:16;;;;;;;17.73;10.30;;;;;;;;;;5043166;28;20199;-81
2021/03/04 02:02:44;;;;;;;15.17;9.63;;;;;;;;;;5068641;28;20201;-88
2021/03/04 02:05:14;;;;;;;18.23;10.63;;;;;;;;;;5057856;28;20435;-83
2021/03/04 02:07:48;;;;;;;15.60;9.67;;;;;;;;;;5044656;28;20204;-87
2021/03/04 02:10:20;;;;;;;15.73;10.17;;;;;;;;;;5061766;28;20223;-86
2021/03/04 02:12:56;;;;;;;14.97;9.40;;;;;;;;;;5038884;28;20227;-86
2021/03/04 02:15:28;;;;;;;17.37;9.23;;;;;;;;;;5046067;28;20228;-87
2021/03/04 02:17:59;;;;;;;14.33;9.53;;;;;;;;;;5037101;28;20262;-80
2021/03/04 02:20:35;;;;;;;16.10;9.70;;;;;;;;;;5052684;28;20207;-89
2021/03/04 02:23:15;;;;;;;20.63;10.13;;;;;;;;;;5061294;28;20211;-92
2021/03/04 02:25:52;;;;;;;19.10;9.50;;;;;;;;;;5062088;28;20205;-93
2021/03/04 02:28:23;;;;;;;18.33;10.33;;;;;;;;;;5061814;28;20183;-92
2021/03/04 02:30:51;;;;;;;14.20;8.50;;;;;;;;;;5077493;28;20213;-85
2021/03/04 02:33:21;;;;;;;16.87;9.53;;;;;;;;;;5050351;28;20202;-80
2021/03/04 02:35:50;;;;;;;13.70;9.40;;;;;;;;;;5049707;28;20226;-83
2021/03/04 02:38:19;;;;;;;15.40;8.87;;;;;;;;;;5049746;28;20196;-80
2021/03/04 02:40:49;;;;;;;18.90;10.67;;;;;;;;;;5055335;28;20206;-91
2021/03/04 02:43:19;;;;;;;14.03;9.40;;;;;;;;;;5062523;28;20189;-91
2021/03/04 02:45:48;;;;;;;15.07;10.03;;;;;;;;;;5060957;28;20230;-88
2021/03/04 02:48:19;;;;;;;16.17;10.20;;;;;;;;;;5055617;28;20211;-84
2021/03/04 02:50:50;;;;;;;15.57;9.43;;;;;;;;;;5046174;28;20198;-80
2021/03/04 02:53:18;;;;;;;18.87;9.40;;;;;;;;;;5045043;28;20698;-80
2021/03/04 02:55:47;;;;;;;16.97;9.53;;;;;;;;;;5047925;28;20237;-80
2021/03/04 02:58:17;;;;;;;17.17;9.83;;;;;;;;;;5047742;28;20230;-80
2021/03/04 03:00:48;;;;;;;13.73;8.73;;;;;;;;;;5046962;28;20198;-85
2021/03/04 03:03:16;;;;;;;18.63;10.53;;;;;;;;;;5046738;28;20204;-80
2021/03/04 03:05:45;;;;;;;17.20;10.77;;;;;;;;;;5032539;28;20225;-80
2021/03/04 03:08:15;;;;;;;18.83;9.70;;;;;;;;;;5037814;28;20226;-79
2021/03/04 03:10:44;;;;;;;18.93;10.30;;;;;;;;;;5021987;28;20207;-83
2021/03/04 03:13:13;;;;;;;16.10;10.20;;;;;;;;;;5022858;28;20604;-80
2021/03/04 03:15:42;;;;;;;17.00;9.60;;;;;;;;;;5024946;28;20222;-86
2021/03/04 03:18:12;;;;;;;16.47;9.87;;;;;;;;;;5025589;28;20197;-81
2021/03/04 03:20:40;;;;;;;17.37;10.13;;;;;;;;;;5027312;28;20717;-86
2021/03/04 03:23:08;;;;;;;18.30;10.10;;;;;;;;;;5026332;28;20205;-80
2021/03/04 03:25:36;;;;;;;16.80;9.87;;;;;;;;;;5027113;28;20236;-84
2021/03/04 03:28:04;;;;;;;16.37;10.90;;;;;;;;;;5026928;28;20206;-82
2021/03/04 03:30:33;;;;;;;15.57;9.60;;;;;;;;;;5038837;28;20213;-80
2021/03/04 03:33:03;;;;;;;18.87;11.20;;;;;;;;;;5041790;28;20200;-81
2021/03/04 03:35:32;;;;;;;18.93;10.57;;;;;;;;;;5044132;28;20228;-81
2021/03/04 03:38:03;;;;;;;15.73;9.90;;;;;;;;;;5045823;28;20200;-80
2021/03/04 03:40:33;;;;;;;19.27;10.43;;;;;;;;;;5046561;28;20193;-80
2021/03/04 03:43:03;;;;;;;15.70;10.00;;;;;;;;;;5046412;28;20206;-85
2021/03/04 03:45:34;;;;;;;16.63;10.73;;;;;;;;;;5045837;28;20713;-81
2021/03/04 03:48:04;;;;;;;18.90;10.10;;;;;;;;;;5041823;28;20198;-81
2021/03/04 03:50:33;;;;;;;15.23;9.93;;;;;;;;;;5042280;28;20227;-84
2021/03/04 03:53:02;;;;;;;17.93;10.23;;;;;;;;;;5043626;28;20228;-81
2021/03/04 03:55:30;;;;;;;18.60;10.20;;;;;;;;;;5045217;28;20220;-80
2021/03/04 03:58:00;;;;;;;16.43;10.23;;;;;;;;;;5044770;28;20205;-79
2021/03/04 04:00:28;;;;;;;16.63;10.07;;;;;;;;;;5046004;28;20183;-79
2021/03/04 04:02:57;;;;;;;15.47;10.30;;;;;;;;;;5043060;28;20207;-87
2021/03/04 04:05:26;;;;;;;23.43;10.37;;;;;;;;;;5043609;28;20234;-84
2021/03/04 04:07:55;;;;;;;15.13;9.03;;;;;;;;;;5045793;28;20213;-80
2021/03/04 04:10:24;;;;;;;19.50;10.67;;;;;;;;;;5045016;28;20218;-81
2021/03/04 04:12:52;;;;;;;18.50;11.70;;;;;;;;;;5043343;28;20191;-79
2021/03/04 04:15:21;;;;;;;17.63;9.23;;;;;;;;;;5062017;28;20218;-85
2021/03/04 04:17:49;;;;;;;17.57;10.97;;;;;;;;;;5043448;28;20222;-80
2021/03/04 04:20:18;;;;;;;18.13;11.07;;;;;;;;;;5045775;28;20212;-82
2021/03/04 04:22:47;;;;;;;15.60;9.47;;;;;;;;;;5028998;28;20212;-84
2021/03/04 04:25:16;;;;;;;17.37;9.70;;;;;;;;;;5041312;28;20226;-80
2021/03/04 04:27:44;;;;;;;21.37;10.00;;;;;;;;;;5041356;28;20588;-82
2021/03/04 04:30:12;;;;;;;18.00;10.57;;;;;;;;;;5035357;28;20247;-85
2021/03/04 04:32:40;;;;;;;17.50;10.20;;;;;;;;;;5044504;28;20227;-82
2021/03/04 04:35:09;;;;;;;16.03;10.90;;;;;;;;;;5046985;28;20215;-82
2021/03/04 04:37:37;;;;;;;19.47;10.37;;;;;;;;;;5047473;28;20212;-87
2021/03/04 04:40:07;;;;;;;21.97;11.33;;;;;;;;;;5027464;28;20245;-86
2021/03/04 04:42:37;;;;;;;14.07;9.73;;;;;;;;;;5025094;28;20207;-85
2021/03/04 04:45:09;;;;;;;13.77;9.37;;;;;;;;;;5040460;28;20248;-86
2021/03/04 04:47:37;;;;;;;19.03;9.97;;;;;;;;;;5035902;28;20639;-80
2021/03/04 04:50:06;;;;;;;14.40;9.87;;;;;;;;;;5042738;28;20235;-82
2021/03/04 04:52:34;;;;;;;15.57;10.17;;;;;;;;;;5043609;28;20670;-82
2021/03/04 04:55:03;;;;;;;13.57;9.47;;;;;;;;;;5031409;28;20239;-84
2021/03/04 04:57:32;;;;;;;16.70;9.97;;;;;;;;;;5027655;28;20724;-84
2021/03/04 05:00:00;;;;;;;17.23;9.77;;;;;;;;;;5041462;28;20232;-85
2021/03/04 05:02:29;;;;;;;13.10;9.30;;;;;;;;;;5060219;28;20489;-80
2021/03/04 05:04:57;;;;;;;18.27;9.87;;;;;;;;;;5044291;28;20232;-80
2021/03/04 05:07:25;;;;;;;15.97;10.17;;;;;;;;;;5042896;28;20215;-80
2021/03/04 05:09:53;;;;;;;14.83;9.43;;;;;;;;;;5042318;28;20653;-82
2021/03/04 05:12:21;;;;;;;13.97;9.43;;;;;;;;;;5044268;28;20206;-84
2021/03/04 05:14:49;;;;;;;17.20;10.07;;;;;;;;;;5042776;28;20219;-83
2021/03/04 05:17:18;;;;;;;16.73;9.67;;;;;;;;;;5042306;28;20193;-81
2021/03/04 05:19:46;;;;;;;14.27;9.33;;;;;;;;;;5044179;28;20197;-80
2021/03/04 05:22:13;;;;;;;15.07;10.00;;;;;;;;;;5056927;28;20765;-79
2021/03/04 05:24:42;;;;;;;16.97;10.13;;;;;;;;;;5041191;28;20237;-80
2021/03/04 05:27:10;;;;;;;16.33;9.77;;;;;;;;;;5044462;28;20202;-80
2021/03/04 05:29:39;;;;;;;16.57;9.93;;;;;;;;;;5045038;28;20573;-80
2021/03/04 05:32:08;;;;;;;17.10;9.77;;;;;;;;;;5045270;28;20215;-82
2021/03/04 05:34:40;;;;;;;18.50;9.63;;;;;;;;;;5047435;28;20212;-81
2021/03/04 05:37:09;;;;;;;15.57;9.13;;;;;;;;;;5055549;28;20184;-90
2021/03/04 05:39:37;;;;;;;15.17;9.47;;;;;;;;;;5063887;28;20177;-88
2021/03/04 05:42:06;;;;;;;16.27;9.87;;;;;;;;;;5057974;28;20180;-84
2021/03/04 05:44:34;;;;;;;15.43;9.40;;;;;;;;;;5046879;28;20206;-82
2021/03/04 05:47:03;;;;;;;13.90;9.07;;;;;;;;;;5048716;28;20211;-81
2021/03/04 05:49:32;;;;;;;14.30;9.63;;;;;;;;;;5046869;28;20200;-80
2021/03/04 05:52:03;;;;;;;16.77;9.57;;;;;;;;;;5036866;28;20231;-83
2021/03/04 05:54:35;;;;;;;13.17;9.23;;;;;;;;;;5023826;28;20228;-81
2021/03/04 05:57:05;;;;;;;12.23;8.53;;;;;;;;;;5040001;28;20209;-85
2021/03/04 05:59:33;;;;;;;14.57;9.20;;;;;;;;;;5044589;28;20667;-84
2021/03/04 06:02:02;;;;;;;12.37;8.33;;;;;;;;;;5046548;28;20194;-83
2021/03/04 06:04:30;;;;;;;14.10;9.20;;;;;;;;;;5046504;28;20566;-79
2021/03/04 06:06:58;;;;;;;15.47;9.60;;;;;;;;;;5045055;28;20215;-82
2021/03/04 06:09:28;;;;;;;13.27;8.47;;;;;;;;;;5047604;28;20212;-80
2021/03/04 06:12:01;;;;;;;15.17;8.57;;;;;;;;;;5061283;28;20212;-82
2021/03/04 06:14:29;;;;;;;14.33;9.37;;;;;;;;;;5050346;28;20201;-82
2021/03/04 06:16:59;;;;;;;13.20;9.07;;;;;;;;;;5052435;28;20229;-80
2021/03/04 06:19:27;;;;;;;12.40;8.70;;;;;;;;;;5042490;28;20234;-80
2021/03/04 06:22:00;;;;;;;16.63;9.03;;;;;;;;;;5044314;28;20200;-82
2021/03/04 06:24:29;;;;;;;12.77;8.30;;;;;;;;;;5042959;28;20227;-86
2021/03/04 06:26:57;;;;;;;16.23;9.20;;;;;;;;;;5044220;28;20216;-81
2021/03/04 06:29:26;;;;;;;15.43;9.77;;;;;;;;;;5044905;28;20203;-82
2021/03/04 06:32:05;;;;;;;13.93;9.33;;;;;;;;;;5058694;28;20212;-84
2021/03/04 06:34:33;;;;;;;13.17;9.33;;;;;;;;;;5061040;28;20222;-82
2021/03/04 06:37:03;;;;;;;14.40;9.30;;;;;;;;;;5043906;28;20203;-82
2021/03/04 06:39:42;;;;;;;17.80;9.73;;;;;;;;;;5059835;28;20214;-82
2021/03/04 06:42:11;;;;;;;14.63;9.50;;;;;;;;;;5046451;28;20188;-80
2021/03/04 06:44:40;;;;;;;14.53;8.90;;;;;;;;;;5061866;28;20587;-83
2021/03/04 06:47:09;;;;;;;16.03;8.83;;;;;;;;;;5062193;28;20220;-80
2021/03/04 06:49:38;;;;;;;13.77;9.53;;;;;;;;;;5023294;28;20228;-81
2021/03/04 06:52:07;;;;;;;13.03;8.57;;;;;;;;;;5000919;28;20232;-84
2021/03/04 06:54:36;;;;;;;16.20;8.87;;;;;;;;;;5010390;28;20716;-80
2021/03/04 06:57:14;;;;;;;16.67;9.20;;;;;;;;;;5034514;28;20229;-81
2021/03/04 06:59:42;;;;;;;14.20;9.00;;;;;;;;;;5051403;28;20579;-79
2021/03/04 07:02:11;;;;;;;15.03;9.20;;;;;;;;;;5018795;28;20208;-80
2021/03/04 07:04:39;;;;;;;16.03;9.23;;;;;;;;;;5017509;28;20231;-79
2021/03/04 07:07:10;;;;;;;14.10;8.77;;;;;;;;;;5017538;28;20616;-79
2021/03/04 07:09:38;;;;;;;13.67;9.20;;;;;;;;;;5017043;28;20207;-80
2021/03/04 07:12:07;;;;;;;18.57;9.20;;;;;;;;;;5017944;28;20664;-80
2021/03/04 07:14:36;;;;;;;15.13;9.07;;;;;;;;;;5018161;28;20200;-80
2021/03/04 07:17:05;;;;;;;15.03;9.40;;;;;;;;;;5017886;28;20201;-79
2021/03/04 07:19:34;;;;;;;16.10;8.47;;;;;;;;;;5016575;28;20611;-79
2021/03/04 07:22:03;;;;;;;16.43;9.10;;;;;;;;;;5017313;28;20194;-81
2021/03/04 07:24:30;;;;;;;12.90;8.57;;;;;;;;;;5016949;28;20203;-91
2021/03/04 07:26:58;;;;;;;15.63;9.10;;;;;;;;;;5017911;28;20220;-80
2021/03/04 07:29:26;;;;;;;15.33;9.47;;;;;;;;;;5018333;28;20578;-79
2021/03/04 07:31:55;;;;;;;16.07;8.67;;;;;;;;;;5018853;28;20207;-83
2021/03/04 07:34:23;;;;;;;12.90;9.07;;;;;;;;;;5018336;28;20209;-84
2021/03/04 07:36:51;;;;;;;17.90;9.80;;;;;;;;;;5018011;28;20205;-80
2021/03/04 07:39:28;;;;;;;15.73;10.33;;;;;;;;;;5018388;28;20205;-79
2021/03/04 07:41:56;;;;;;;16.77;11.03;;;;;;;;;;5057276;28;20216;-81
2021/03/04 07:44:25;;;;;;;17.33;10.50;;;;;;;;;;5057899;28;20232;-82
2021/03/04 07:46:55;;;;;;;17.37;9.87;;;;;;;;;;5056827;28;20222;-79
2021/03/04 07:49:31;;;;;;;15.60;8.80;;;;;;;;;;5072854;28;20206;-79
2021/03/04 07:52:06;;;;;;;16.67;8.97;;;;;;;;;;5057579;28;20190;-79
2021/03/04 07:54:34;;;;;;;14.03;8.30;;;;;;;;;;5055589;28;20218;-87
2021/03/04 07:57:03;;;;;;;13.97;8.33;;;;;;;;;;5055819;28;20199;-81
2021/03/04 07:59:31;;;;;;;13.80;7.70;;;;;;;;;;5042580;28;20687;-79
2021/03/04 08:02:01;;;;;;;13.27;7.80;;;;;;;;;;5036442;28;20209;-80
2021/03/04 08:04:30;;;;;;;14.13;7.80;;;;;;;;;;5036330;28;20703;-79
2021/03/04 08:06:59;;;;;;;12.47;8.87;;;;;;;;;;5035487;28;20226;-86
2021/03/04 08:09:28;;;;;;;13.57;7.93;;;;;;;;;;5036512;28;20198;-82
2021/03/04 08:12:08;;;;;;;11.27;7.33;;;;;;;;;;5035906;28;20209;-83
2021/03/04 08:14:36;;;;;;;16.87;7.70;;;;;;;;;;5037202;28;20668;-81
2021/03/04 08:17:05;;;;;;;13.60;7.90;;;;;;;;;;5036549;28;20579;-79
2021/03/04 08:19:34;;;;;;;10.77;7.63;;;;;;;;;;5036083;28;20704;-79
2021/03/04 08:22:05;;;;;;;11.63;7.37;;;;;;;;;;5035982;28;20234;-79
2021/03/04 08:24:35;;;;;;;13.00;8.07;;;;;;;;;;5053479;28;20677;-84
2021/03/04 08:27:09;;;;;;;13.80;7.80;;;;;;;;;;5036511;28;20212;-79
2021/03/04 08:29:46;;;;;;;11.83;8.17;;;;;;;;;;5035306;28;20231;-84
2021/03/04 08:32:15;;;;;;;11.10;8.10;;;;;;;;;;5054079;28;20195;-90
2021/03/04 08:34:43;;;;;;;13.07;8.47;;;;;;;;;;5057328;28;20224;-89
2021/03/04 08:37:22;;;;;;;11.87;7.97;;;;;;;;;;5039109;28;20227;-86
2021/03/04 08:39:54;;;;;;;11.40;7.67;;;;;;;;;;5035123;28;20206;-79
2021/03/04 08:42:24;;;;;;;15.07;8.70;;;;;;;;;;5030516;28;20208;-78
2021/03/04 08:44:52;;;;;;;13.30;9.03;;;;;;;;;;5020133;28;20235;-79
2021/03/04 08:47:21;;;;;;;22.10;9.20;;;;;;;;;;5033343;28;20242;-85
2021/03/04 08:49:50;;;;;;;14.03;8.53;;;;;;;;;;5034561;28;20226;-81
2021/03/04 08:52:23;;;;;;;12.03;8.13;;;;;;;;;;5035806;28;20203;-78
2021/03/04 08:54:51;;;;;;;13.80;7.67;;;;;;;;;;5044673;28;20231;-89
2021/03/04 08:57:24;;;;;;;10.40;7.67;;;;;;;;;;5039548;28;20215;-91
2021/03/04 09:00:04;;;;;;;10.97;8.00;;;;;;;;;;5039704;28;20200;-92
2021/03/04 09:02:32;;;;;;;13.03;7.73;;;;;;;;;;5031653;28;20223;-91
2021/03/04 09:05:01;;;;;;;13.93;8.17;;;;;;;;;;5059418;28;20191;-92
2021/03/04 09:07:31;;;;;;;13.70;7.90;;;;;;;;;;5058979;28;20214;-93
2021/03/04 09:10:00;;;;;;;10.60;7.83;;;;;;;;;;5035367;28;20233;-78
2021/03/04 09:12:29;;;;;;;14.47;7.67;;;;;;;;;;5033363;28;20215;-80
2021/03/04 09:14:57;;;;;;;16.73;9.40;;;;;;;;;;5049990;28;20704;-79
2021/03/04 09:17:25;;;;;;;14.27;8.87;;;;;;;;;;5034489;28;20738;-78
2021/03/04 09:19:55;;;;;;;12.60;9.13;;;;;;;;;;5034695;28;20195;-80
2021/03/04 09:22:23;;;;;;;12.93;8.33;;;;;;;;;;5034809;28;20577;-81
2021/03/04 09:24:51;;;;;;;13.13;8.87;;;;;;;;;;5041922;28;20211;-94
2021/03/04 09:27:20;;;;;;;11.77;7.97;;;;;;;;;;5058285;28;20241;-92
2021/03/04 09:29:48;;;;;;;11.87;7.60;;;;;;;;;;5058487;28;20168;-91
2021/03/04 09:32:15;;;;;;;14.30;8.30;;;;;;;;;;5045736;28;20231;-87
2021/03/04 09:34:45;;;;;;;10.57;7.53;;;;;;;;;;5030320;28;20628;-80
2021/03/04 09:37:15;;;;;;;15.07;8.57;;;;;;;;;;5044253;28;20228;-88
2021/03/04 09:39:44;;;;;;;15.63;8.50;;;;;;;;;;5029859;28;20193;-87
2021/03/04 09:42:13;;;;;;;17.17;8.73;;;;;;;;;;5041411;28;20709;-83
2021/03/04 09:44:53;;;;;;;11.57;7.83;;;;;;;;;;5029895;28;20600;-79
2021/03/04 09:47:22;;;;;;;15.83;9.43;;;;;;;;;;5019467;28;20224;-84
2021/03/04 09:49:51;;;;;;;14.47;9.47;;;;;;;;;;5022795;28;20208;-83
2021/03/04 09:52:24;;;;;;;17.83;10.83;;;;;;;;;;5029869;28;20220;-84
2021/03/04 09:55:09;;;;;;;20.43;11.10;;;;;;;;;;5036348;28;20229;-85
2021/03/04 09:57:40;;;;;;;17.43;10.67;;;;;;;;;;5049500;28;20689;-84
2021/03/04 10:00:18;;;;;;;17.03;11.33;;;;;;;;;;5041523;28;20228;-85
2021/03/04 10:02:47;;;;;;;15.67;10.30;;;;;;;;;;5056058;28;20234;-84
2021/03/04 10:05:16;;;;;;;16.83;10.93;;;;;;;;;;5046099;28;20234;-86
2021/03/04 10:07:47;;;;;;;22.07;12.00;;;;;;;;;;5036452;28;20238;-83
2021/03/04 10:10:17;;;;;;;18.37;11.47;;;;;;;;;;5052486;28;20257;-84
2021/03/04 10:12:48;;;;;;;20.63;12.00;;;;;;;;;;5050250;28;20219;-86
2021/03/04 10:15:26;;;;;;;21.23;12.60;;;;;;;;;;5040130;28;20235;-83
2021/03/04 10:17:55;;;;;;;21.37;13.30;;;;;;;;;;5042642;28;20227;-84
2021/03/04 10:20:24;;;;;;;21.57;12.83;;;;;;;;;;5048493;28;20492;-85
2021/03/04 10:22:52;;;;;;;22.03;13.23;;;;;;;;;;5049263;28;20702;-85
2021/03/04 10:25:20;;;;;;;21.93;12.40;;;;;;;;;;5049270;28;20228;-83
2021/03/04 10:27:47;;;;;;;18.57;12.63;;;;;;;;;;5054963;28;20238;-83
2021/03/04 10:30:16;;;;;;;18.93;12.50;;;;;;;;;;5032237;28;20593;-84
2021/03/04 10:32:44;;;;;;;21.13;13.10;;;;;;;;;;5042304;28;20566;-83
2021/03/04 10:35:13;;;;;;;22.07;13.67;;;;;;;;;;5049950;28;20239;-82
2021/03/04 10:37:42;;;;;;;21.17;13.70;;;;;;;;;;5055098;28;20228;-84
2021/03/04 10:40:12;;;;;;;23.30;14.93;;;;;;;;;;5035998;28;20242;-87
2021/03/04 10:42:40;;;;;;;23.23;14.20;;;;;;;;;;5071695;28;20246;-84
2021/03/04 10:45:09;;;;;;;22.23;14.60;;;;;;;;;;5055193;28;20235;-82
2021/03/04 10:47:38;;;;;;;24.67;13.73;;;;;;;;;;5028011;28;20232;-85
2021/03/04 10:50:07;;;;;;;22.87;13.33;;;;;;;;;;5047382;28;20232;-84
2021/03/04 10:52:35;;;;;;;21.30;12.87;;;;;;;;;;5046873;28;20234;-85
2021/03/04 10:55:03;;;;;;;21.83;13.77;;;;;;;;;;5043248;28;21639;-83
2021/03/04 10:57:31;;;;;;;17.90;12.90;;;;;;;;;;5051886;28;20581;-83
2021/03/04 10:59:59;;;;;;;23.53;12.67;;;;;;;;;;5054979;28;20232;-84
2021/03/04 11:02:27;;;;;;;18.43;12.17;;;;;;;;;;5054512;28;20235;-83
2021/03/04 11:04:54;;;;;;;20.43;13.43;;;;;;;;;;5055908;28;20248;-82
2021/03/04 11:07:23;;;;;;;22.73;13.57;;;;;;;;;;5048986;28;20223;-85
2021/03/04 11:09:51;;;;;;;20.87;12.97;;;;;;;;;;5046986;28;20231;-85
2021/03/04 11:12:25;;;;;;;22.70;12.70;;;;;;;;;;5048367;28;20235;-85
2021/03/04 11:14:53;;;;;;;19.30;12.53;;;;;;;;;;5033443;28;20732;-82
2021/03/04 11:17:21;;;;;;;20.80;12.40;;;;;;;;;;5047955;28;20223;-83
2021/03/04 11:19:49;;;;;;;17.60;12.30;;;;;;;;;;5054558;28;20226;-85
2021/03/04 11:22:17;;;;;;;18.13;13.23;;;;;;;;;;5057712;28;20223;-86
2021/03/04 11:24:46;;;;;;;15.57;12.27;;;;;;;;;;5046598;28;20713;-83
2021/03/04 11:27:14;;;;;;;17.67;11.20;;;;;;;;;;5064491;28;20219;-84
2021/03/04 11:29:42;;;;;;;17.63;11.53;;;;;;;;;;5070875;28;20227;-82
2021/03/04 11:32:10;;;;;;;17.37;11.40;;;;;;;;;;5048513;28;20215;-85
2021/03/04 11:34:38;;;;;;;19.57;12.37;;;;;;;;;;5063320;28;20230;-85
2021/03/04 11:37:06;;;;;;;22.60;12.73;;;;;;;;;;5042977;28;20228;-85
2021/03/04 11:39:33;;;;;;;19.33;11.93;;;;;;;;;;5048427;28;20227;-85
2021/03/04 11:42:02;;;;;;;18.53;12.60;;;;;;;;;;5061222;28;20219;-83
2021/03/04 11:44:32;;;;;;;18.40;12.57;;;;;;;;;;5039648;28;20232;-82
2021/03/04 11:46:59;;;;;;;21.47;12.33;;;;;;;;;;5047836;28;20223;-83
2021/03/04 11:49:28;;;;;;;20.10;12.03;;;;;;;;;;5021875;28;20235;-83
2021/03/04 11:51:56;;;;;;;16.30;10.20;;;;;;;;;;5056506;28;20235;-81
2021/03/04 11:54:25;;;;;;;15.57;10.97;;;;;;;;;;5060103;28;20223;-85
2021/03/04 11:56:52;;;;;;;17.83;11.93;;;;;;;;;;5046617;28;20219;-84
2021/03/04 11:59:20;;;;;;;14.17;9.97;;;;;;;;;;5042526;28;20553;-82
2021/03/04 12:01:48;;;;;;;17.87;10.33;;;;;;;;;;5051438;28;20231;-80
2021/03/04 12:04:16;;;;;;;16.90;10.13;;;;;;;;;;5061268;28;20227;-82
2021/03/04 12:06:44;;;;;;;15.87;10.93;;;;;;;;;;5044684;28;20236;-84
2021/03/04 12:09:12;;;;;;;16.90;10.83;;;;;;;;;;5057846;28;20243;-82
2021/03/04 12:11:45;;;;;;;16.27;9.33;;;;;;;;;;5058975;28;20231;-84
2021/03/04 12:14:13;;;;;;;18.63;9.77;;;;;;;;;;5035743;28;20228;-82
2021/03/04 12:16:45;;;;;;;15.23;10.43;;;;;;;;;;5058911;28;20227;-82
2021/03/04 12:19:14;;;;;;;14.77;9.80;;;;;;;;;;5060016;28;20250;-84
2021/03/04 12:21:41;;;;;;;17.15;10.68;;;;;;;;;;5049180;28;20246;-83
2021/03/04 12:24:10;;;;;;;18.15;10.73;;;;;;;;;;5059119;28;20234;-83
2021/03/04 12:26:45;;;;;;;13.98;9.27;;;;;;;;;;5042193;28;20230;-84
2021/03/04 12:29:13;;;;;;;16.52;11.30;;;;;;;;;;5055710;28;20439;-83
2021/03/04 12:31:42;;;;;;;14.15;9.70;;;;;;;;;;5025086;28;20223;-83
2021/03/04 12:34:10;;;;;;;14.65;10.20;;;;;;;;;;5026555;28;20221;-83
2021/03/04 12:36:43;;;;;;;13.88;9.52;;;;;;;;;;5062448;28;20231;-82
2021/03/04 12:39:12;;;;;;;11.77;8.52;;;;;;;;;;5057783;28;20231;-78
2021/03/04 12:41:39;;;;;;;12.90;8.23;;;;;;;;;;5055241;28;20223;-82
2021/03/04 12:44:07;;;;;;;9.45;7.65;;;;;;;;;;5054370;28;20223;-79
2021/03/04 12:46:35;;;;;;;12.95;7.32;;;;;;;;;;5054761;28;20231;-80
2021/03/04 12:49:03;;;;;;;12.00;8.33;;;;;;;;;;5063506;28;20250;-78
2021/03/04 12:51:32;;;;;;;12.73;7.20;;;;;;;;;;5031020;28;20231;-82
2021/03/04 12:54:00;;;;;;;13.63;7.67;;;;;;;;;;5058579;28;20212;-78
2021/03/04 12:56:29;;;;;;;11.60;7.30;;;;;;;;;;5067150;28;20211;-79
2021/03/04 12:58:57;;;;;;;12.43;6.57;;;;;;;;;;5074478;28;20223;-81
2021/03/04 13:01:27;;;;;;;10.37;6.87;;;;;;;;;;5042870;28;20449;-79
2021/03/04 13:03:55;;;;;;;10.87;7.23;;;;;;;;;;5044957;28;20221;-80
2021/03/04 13:06:23;;;;;;;14.10;6.70;;;;;;;;;;5038459;28;20231;-81
2021/03/04 13:08:58;;;;;;;9.23;6.00;;;;;;;;;;5044820;28;20224;-82
2021/03/04 13:11:26;;;;;;;11.30;7.13;;;;;;;;;;5042234;28;20220;-81
2021/03/04 13:13:54;;;;;;;12.13;7.40;;;;;;;;;;5049797;28;20669;-82
2021/03/04 13:16:22;;;;;;;12.67;6.93;;;;;;;;;;5016809;28;20229;-79
2021/03/04 13:18:50;;;;;;;10.63;7.07;;;;;;;;;;5055396;28;20227;-84
2021/03/04 13:21:18;;;;;;;12.97;6.70;;;;;;;;;;5037303;28;20220;-84
2021/03/04 13:23:45;;;;;;;12.60;7.23;;;;;;;;;;5037517;28;20238;-81
2021/03/04 13:26:13;;;;;;;8.80;6.80;;;;;;;;;;5044741;28;20262;-84
2021/03/04 13:28:43;;;;;;;12.87;7.70;;;;;;;;;;5049823;28;20231;-87
2021/03/04 13:31:11;;;;;;;13.17;6.50;;;;;;;;;;5026557;28;20225;-83
2021/03/04 13:33:39;;;;;;;11.63;7.60;;;;;;;;;;5052328;28;20230;-87
2021/03/04 13:36:07;;;;;;;11.10;7.50;;;;;;;;;;5031385;28;20243;-85
2021/03/04 13:38:35;;;;;;;14.23;8.33;;;;;;;;;;5027548;28;20267;-85
2021/03/04 13:41:03;;;;;;;11.97;7.70;;;;;;;;;;5043863;28;20232;-83
2021/03/04 13:43:30;;;;;;;12.63;7.60;;;;;;;;;;5046011;28;20239;-82
2021/03/04 13:45:58;;;;;;;19.73;8.00;;;;;;;;;;5053396;28;20227;-86
2021/03/04 13:48:27;;;;;;;14.93;8.63;;;;;;;;;;5035818;28;20232;-84
2021/03/04 13:50:55;;;;;;;13.63;8.20;;;;;;;;;;5049087;28;20224;-86
2021/03/04 13:53:23;;;;;;;12.03;8.40;;;;;;;;;;5062338;28;20231;-85
2021/03/04 13:55:51;;;;;;;13.00;7.80;;;;;;;;;;5045928;28;20230;-82
2021/03/04 13:58:18;;;;;;;13.30;7.70;;;;;;;;;;5054206;28;20219;-83
2021/03/04 14:00:46;;;;;;;13.00;7.80;;;;;;;;;;5032019;28;20229;-84
2021/03/04 14:03:14;;;;;;;14.53;7.73;;;;;;;;;;5063576;28;20223;-83
2021/03/04 14:05:43;;;;;;;14.33;7.63;;;;;;;;;;5048323;28;20227;-85
2021/03/04 14:08:10;;;;;;;13.80;8.20;;;;;;;;;;5035071;28;20227;-84
2021/03/04 14:10:38;;;;;;;17.00;8.00;;;;;;;;;;5052323;28;20220;-86
2021/03/04 14:13:05;;;;;;;15.53;7.83;;;;;;;;;;5038972;28;20220;-86
2021/03/04 14:15:33;;;;;;;16.07;8.80;;;;;;;;;;5051040;28;20219;-83
2021/03/04 14:18:02;;;;;;;16.63;9.07;;;;;;;;;;5049715;28;20730;-81
2021/03/04 14:20:31;;;;;;;13.83;8.87;;;;;;;;;;5034455;28;20246;-87
2021/03/04 14:23:00;;;;;;;15.37;9.43;;;;;;;;;;5061921;28;20486;-81
2021/03/04 14:25:27;;;;;;;13.50;10.10;;;;;;;;;;5066485;28;20225;-81
2021/03/04 14:28:11;;;;;;;16.93;8.43;;;;;;;;;;5053463;28;20231;-84
2021/03/04 14:30:39;;;;;;;14.23;9.13;;;;;;;;;;5053232;28;20542;-84
2021/03/04 14:33:07;;;;;;;17.80;9.33;;;;;;;;;;5052756;28;20698;-84
2021/03/04 14:35:51;;;;;;;16.07;9.33;;;;;;;;;;5055903;28;20635;-84
2021/03/04 14:38:19;;;;;;;14.67;8.80;;;;;;;;;;5032774;28;20227;-84